This is the latest recevied weather packets stored in our database for station/object EA1PYE-10. If no packets are shown the sender has not sent any weather packets the latest 10 day(s).
| Time | Temp. | Humidity | Pressure | Rain* | Wind** | Luminosity | Snow |
|---|---|---|---|---|---|---|---|
| 1787417128 | 20° C | 54% | 1014.3 hPa | - | - | - | - |
| 1787415327 | 20° C | 53% | 1014.1 hPa | - | - | - | - |
| 1787413527 | 20° C | 53% | 1014 hPa | - | - | - | - |
| 1787411727 | 20° C | 53% | 1013.9 hPa | - | - | - | - |
| 1787409927 | 20° C | 53% | 1013.8 hPa | - | - | - | - |
| 1787408127 | 20° C | 52% | 1013.9 hPa | - | - | - | - |
| 1787406327 | 19.44° C | 50% | 1014.2 hPa | - | - | - | - |
| 1787404527 | 19.44° C | 49% | 1014.3 hPa | - | - | - | - |
| 1787402727 | 19.44° C | 48% | 1014.7 hPa | - | - | - | - |
| 1787400927 | 19.44° C | 47% | 1014.9 hPa | - | - | - | - |
| 1787399126 | 19.44° C | 46% | 1015.1 hPa | - | - | - | - |
| 1787397326 | 19.44° C | 46% | 1015.4 hPa | - | - | - | - |
| 1787395526 | 19.44° C | 46% | 1015.3 hPa | - | - | - | - |
| 1787393726 | 20° C | 46% | 1015.5 hPa | - | - | - | - |
| 1787391926 | 19.44° C | 46% | 1015.3 hPa | - | - | - | - |
| 1787390126 | 20° C | 45% | 1015.6 hPa | - | - | - | - |
| 1787388326 | 20° C | 47% | 1015.8 hPa | - | - | - | - |
| 1787386526 | 20.56° C | 47% | 1016 hPa | - | - | - | - |
| 1787384726 | 20.56° C | 46% | 1016.1 hPa | - | - | - | - |
| 1787382926 | 23.89° C | 39% | 1016.6 hPa | - | - | - | - |
| 1787379326 | 22.22° C | 42% | 1016.9 hPa | - | - | - | - |
| 1787377525 | 20° C | 49% | 1016.9 hPa | - | - | - | - |
| 1787375726 | 20° C | 48% | 1016.6 hPa | - | - | - | - |
| 1787373926 | 20° C | 49% | 1016.6 hPa | - | - | - | - |
| 1787372129 | 20° C | 49% | 1016.7 hPa | - | - | - | - |
* Rain since midnight (hover to see other rain measurements)
** Current wind speed in m/s (hover to see current wind gust speed)